createdAt,value
2022-11-29T00:00:18.731Z,9.35
2022-11-29T00:00:50.155Z,9.97
2022-11-29T00:01:21.569Z,8.75
2022-11-29T00:01:53.085Z,9.18
2022-11-29T00:02:24.783Z,8.71
2022-11-29T00:02:56.430Z,9.39
2022-11-29T00:03:27.988Z,8.35
2022-11-29T00:03:59.425Z,8.89
2022-11-29T00:04:30.816Z,8.27
2022-11-29T00:05:02.346Z,8.58
2022-11-29T00:05:33.753Z,8.18
2022-11-29T00:06:05.148Z,9.38
2022-11-29T00:06:36.556Z,8.52
2022-11-29T00:07:07.956Z,9.00
2022-11-29T00:07:39.372Z,8.74
2022-11-29T00:08:10.787Z,9.25
2022-11-29T00:08:42.182Z,8.52
2022-11-29T00:09:13.568Z,8.25
2022-11-29T00:09:45.109Z,8.96
2022-11-29T00:10:16.591Z,8.52
2022-11-29T00:10:47.989Z,9.01
2022-11-29T00:11:19.381Z,8.19
2022-11-29T00:11:50.775Z,8.95
2022-11-29T00:12:22.171Z,8.49
2022-11-29T00:12:53.569Z,8.46
2022-11-29T00:13:24.960Z,8.91
2022-11-29T00:13:56.366Z,8.18
2022-11-29T00:14:27.774Z,8.93
2022-11-29T00:14:59.159Z,8.66
2022-11-29T00:15:30.666Z,8.73
2022-11-29T00:16:02.077Z,8.88
2022-11-29T00:16:33.577Z,8.75
2022-11-29T00:17:05.100Z,8.01
2022-11-29T00:17:36.559Z,8.48
2022-11-29T00:18:08.014Z,8.49
2022-11-29T00:18:39.403Z,8.21
2022-11-29T00:19:10.759Z,8.18
2022-11-29T00:19:42.199Z,8.18
2022-11-29T00:20:13.594Z,8.34
2022-11-29T00:20:45.118Z,8.59
2022-11-29T00:21:16.507Z,7.71
2022-11-29T00:21:47.909Z,8.85
2022-11-29T00:22:19.299Z,9.19
2022-11-29T00:22:50.762Z,7.97
2022-11-29T00:23:22.153Z,7.73
2022-11-29T00:23:53.556Z,8.68
2022-11-29T00:24:24.961Z,8.66
2022-11-29T00:24:56.353Z,8.08
2022-11-29T00:25:27.759Z,7.60
2022-11-29T00:25:59.289Z,8.01
2022-11-29T00:26:30.685Z,8.69
2022-11-29T00:27:02.078Z,8.29
2022-11-29T00:27:33.482Z,7.76
2022-11-29T00:28:04.869Z,7.82
2022-11-29T00:28:36.259Z,8.10
2022-11-29T00:29:07.651Z,7.33
2022-11-29T00:29:39.062Z,8.08
2022-11-29T00:30:10.472Z,7.13
2022-11-29T00:30:41.869Z,8.25
2022-11-29T00:31:13.354Z,8.33
2022-11-29T00:31:44.776Z,8.44
2022-11-29T00:32:16.188Z,8.46
2022-11-29T00:32:47.585Z,8.03
2022-11-29T00:33:18.973Z,8.81
2022-11-29T00:33:50.362Z,8.88
2022-11-29T00:34:21.756Z,7.44
2022-11-29T00:34:53.142Z,7.98
2022-11-29T00:35:24.562Z,8.14
2022-11-29T00:35:55.959Z,7.95
2022-11-29T00:36:27.406Z,8.60
2022-11-29T00:36:58.796Z,8.26
2022-11-29T00:37:30.192Z,9.48
2022-11-29T00:38:01.612Z,8.60
2022-11-29T00:38:33.004Z,8.38
2022-11-29T00:39:04.408Z,8.09
2022-11-29T00:39:35.807Z,8.46
2022-11-29T00:40:07.202Z,7.66
2022-11-29T00:40:38.595Z,7.70
2022-11-29T00:41:09.984Z,7.47
2022-11-29T00:41:41.461Z,7.36
2022-11-29T00:42:12.855Z,8.73
2022-11-29T00:42:44.252Z,8.06
2022-11-29T00:43:15.643Z,8.16
2022-11-29T00:43:47.036Z,7.63
2022-11-29T00:44:20.456Z,7.85
2022-11-29T00:44:52.174Z,7.94
2022-11-29T00:45:23.572Z,8.52
2022-11-29T00:45:54.996Z,8.00
2022-11-29T00:46:26.444Z,7.92
2022-11-29T00:46:57.883Z,8.06
2022-11-29T00:47:29.279Z,8.58
2022-11-29T00:48:00.680Z,8.15
2022-11-29T00:48:32.135Z,8.87
2022-11-29T00:49:03.553Z,8.10
2022-11-29T00:49:35.015Z,7.93
2022-11-29T00:50:06.418Z,7.72
2022-11-29T00:50:37.821Z,8.14
2022-11-29T00:51:09.221Z,8.84
2022-11-29T00:51:40.617Z,7.95
2022-11-29T00:52:12.144Z,7.88
2022-11-29T00:52:43.540Z,7.41
2022-11-29T00:53:15.076Z,7.77
2022-11-29T00:53:46.457Z,7.82
2022-11-29T00:54:17.844Z,7.63
2022-11-29T00:54:49.236Z,7.80
2022-11-29T00:55:20.701Z,8.21
2022-11-29T00:55:52.116Z,8.38
2022-11-29T00:56:23.508Z,8.16
2022-11-29T00:56:54.902Z,7.90
2022-11-29T00:57:26.413Z,8.29
2022-11-29T00:57:57.798Z,7.48
2022-11-29T00:58:29.195Z,6.56
2022-11-29T00:59:00.578Z,8.02
2022-11-29T00:59:31.965Z,7.70
2022-11-29T01:00:03.376Z,7.12
2022-11-29T01:00:34.782Z,7.25
2022-11-29T01:01:06.214Z,7.84
2022-11-29T01:01:37.690Z,8.88
2022-11-29T01:02:09.300Z,7.31
2022-11-29T01:02:40.916Z,8.42
2022-11-29T01:03:12.349Z,8.15
2022-11-29T01:03:43.743Z,7.80
2022-11-29T01:04:15.155Z,6.62
2022-11-29T01:04:46.810Z,8.03
2022-11-29T01:05:18.445Z,8.66
2022-11-29T01:05:49.835Z,7.56
2022-11-29T01:06:21.237Z,7.85
2022-11-29T01:06:52.676Z,7.73
2022-11-29T01:07:24.103Z,8.15
2022-11-29T01:07:55.598Z,7.38
2022-11-29T01:08:27.016Z,7.25
2022-11-29T01:08:58.407Z,8.34
2022-11-29T01:09:29.835Z,7.69
2022-11-29T01:10:01.227Z,7.63
2022-11-29T01:10:32.615Z,7.75
2022-11-29T01:11:04.007Z,7.65
2022-11-29T01:11:35.503Z,7.35
2022-11-29T01:12:06.911Z,7.40
2022-11-29T01:12:38.307Z,7.85
2022-11-29T01:13:09.721Z,7.86
2022-11-29T01:13:41.140Z,7.33
2022-11-29T01:14:12.539Z,7.36
2022-11-29T01:14:44.179Z,7.58
2022-11-29T01:15:15.715Z,7.95
2022-11-29T01:15:47.123Z,7.58
2022-11-29T01:16:18.683Z,6.93
2022-11-29T01:16:50.144Z,7.36
2022-11-29T01:17:21.558Z,7.48
2022-11-29T01:17:53.019Z,8.22
2022-11-29T01:18:24.417Z,8.68
2022-11-29T01:18:55.813Z,7.45
2022-11-29T01:19:27.220Z,7.14
2022-11-29T01:19:58.607Z,8.22
2022-11-29T01:20:29.991Z,7.51
2022-11-29T01:21:01.399Z,7.14
2022-11-29T01:21:32.801Z,6.65
2022-11-29T01:22:04.359Z,7.74
2022-11-29T01:22:35.747Z,7.48
2022-11-29T01:23:07.135Z,7.40
2022-11-29T01:23:38.531Z,7.37
2022-11-29T01:24:09.924Z,8.33
2022-11-29T01:24:41.407Z,7.61
2022-11-29T01:25:12.973Z,6.61
2022-11-29T01:25:44.387Z,7.58
2022-11-29T01:26:15.784Z,7.29
2022-11-29T01:26:47.268Z,7.91
2022-11-29T01:27:18.654Z,7.59
2022-11-29T01:27:50.049Z,7.38
2022-11-29T01:28:21.435Z,7.33
2022-11-29T01:28:52.832Z,7.48
2022-11-29T01:29:24.223Z,7.69
2022-11-29T01:29:55.631Z,7.73
2022-11-29T01:30:27.073Z,7.41
2022-11-29T01:30:58.527Z,6.95
2022-11-29T01:31:29.956Z,7.77
2022-11-29T01:32:01.431Z,7.37
2022-11-29T01:32:32.825Z,7.02
2022-11-29T01:33:04.220Z,7.32
2022-11-29T01:33:35.607Z,6.80
2022-11-29T01:34:06.995Z,7.04
2022-11-29T01:34:38.387Z,6.82
2022-11-29T01:35:09.787Z,7.79
2022-11-29T01:35:41.184Z,6.87
2022-11-29T01:36:12.579Z,7.61
2022-11-29T01:36:44.038Z,6.83
2022-11-29T01:37:15.592Z,7.10
2022-11-29T01:37:46.991Z,7.50
2022-11-29T01:38:18.396Z,6.72
2022-11-29T01:38:49.824Z,7.37
2022-11-29T01:39:21.218Z,7.13
2022-11-29T01:39:52.610Z,8.12
2022-11-29T01:40:24.019Z,7.44
2022-11-29T01:40:55.407Z,7.17
2022-11-29T01:41:26.803Z,7.71
2022-11-29T01:41:58.186Z,7.35
2022-11-29T01:42:29.673Z,6.71
2022-11-29T01:43:01.069Z,7.79
2022-11-29T01:43:32.470Z,8.01
2022-11-29T01:44:03.872Z,7.04
2022-11-29T01:44:35.273Z,7.82
2022-11-29T01:45:06.674Z,7.41
2022-11-29T01:45:38.183Z,7.08
2022-11-29T01:46:09.669Z,6.95
2022-11-29T01:46:41.093Z,6.90
2022-11-29T01:47:12.489Z,8.10
2022-11-29T01:47:44.012Z,7.23
2022-11-29T01:48:15.397Z,6.61
2022-11-29T01:48:46.793Z,6.56
2022-11-29T01:49:18.192Z,8.29
2022-11-29T01:49:49.587Z,7.21
2022-11-29T01:50:20.977Z,7.95
2022-11-29T01:50:52.383Z,6.56
2022-11-29T01:51:23.795Z,6.92
2022-11-29T01:51:55.184Z,6.32
2022-11-29T01:52:26.591Z,6.47
2022-11-29T01:52:58.026Z,6.30
2022-11-29T01:53:29.428Z,7.18
2022-11-29T01:54:00.820Z,6.82
2022-11-29T01:54:32.299Z,6.76
2022-11-29T01:55:03.726Z,7.10
2022-11-29T01:55:35.371Z,7.51
2022-11-29T01:56:07.114Z,6.85
2022-11-29T01:56:38.568Z,6.97
2022-11-29T01:57:09.983Z,6.84
2022-11-29T01:57:41.371Z,7.23
2022-11-29T01:58:12.958Z,6.37
2022-11-29T01:58:44.380Z,6.76
2022-11-29T01:59:15.798Z,6.66
2022-11-29T01:59:47.192Z,7.37
2022-11-29T02:00:18.597Z,6.49
2022-11-29T02:00:50.007Z,7.01
2022-11-29T02:01:21.451Z,6.87
2022-11-29T02:01:52.865Z,5.81
2022-11-29T02:02:24.340Z,6.69
2022-11-29T02:02:55.816Z,7.10
2022-11-29T02:03:27.547Z,7.04
2022-11-29T02:03:58.936Z,6.77
2022-11-29T02:04:30.328Z,6.80
2022-11-29T02:05:01.717Z,6.52
2022-11-29T02:05:33.107Z,7.56
2022-11-29T02:06:04.507Z,6.86
2022-11-29T02:06:36.035Z,7.03
2022-11-29T02:07:07.438Z,6.52
2022-11-29T02:07:38.906Z,7.18
2022-11-29T02:08:10.321Z,6.51
2022-11-29T02:08:41.799Z,7.20
2022-11-29T02:09:13.191Z,7.49
2022-11-29T02:09:44.586Z,7.62
2022-11-29T02:10:15.986Z,6.45
2022-11-29T02:10:47.400Z,7.76
2022-11-29T02:11:18.784Z,7.56
2022-11-29T02:11:50.170Z,6.59
2022-11-29T02:12:21.580Z,6.77
2022-11-29T02:12:52.970Z,6.64
2022-11-29T02:13:24.364Z,6.62
2022-11-29T02:13:55.847Z,6.78
2022-11-29T02:14:27.239Z,6.67
2022-11-29T02:14:58.651Z,6.65
2022-11-29T02:15:30.084Z,6.81
2022-11-29T02:16:01.597Z,7.36
2022-11-29T02:16:33.036Z,7.02
2022-11-29T02:17:04.427Z,7.29
2022-11-29T02:17:35.835Z,6.07
2022-11-29T02:18:07.223Z,6.58
2022-11-29T02:18:38.616Z,6.73
2022-11-29T02:19:10.115Z,6.38
2022-11-29T02:19:41.523Z,6.57
2022-11-29T02:20:12.927Z,6.94
2022-11-29T02:20:44.399Z,6.41
2022-11-29T02:21:15.792Z,6.57
2022-11-29T02:21:47.183Z,6.85
2022-11-29T02:22:18.575Z,7.58
2022-11-29T02:22:49.972Z,6.04
2022-11-29T02:23:21.355Z,6.16
2022-11-29T02:23:52.759Z,6.56
2022-11-29T02:24:24.271Z,6.64
2022-11-29T02:24:55.667Z,7.12
2022-11-29T02:25:27.122Z,6.54
2022-11-29T02:25:58.506Z,6.81
2022-11-29T02:26:29.916Z,6.65
2022-11-29T02:27:01.309Z,6.66
2022-11-29T02:27:32.721Z,6.50
2022-11-29T02:28:04.107Z,7.15
2022-11-29T02:28:35.499Z,6.46
2022-11-29T02:29:06.906Z,6.32
2022-11-29T02:29:38.439Z,6.08
2022-11-29T02:30:09.825Z,5.83
2022-11-29T02:30:41.277Z,6.38
2022-11-29T02:31:12.734Z,6.92
2022-11-29T02:31:44.196Z,7.15
2022-11-29T02:32:15.598Z,6.66
2022-11-29T02:32:46.987Z,6.28
2022-11-29T02:33:18.401Z,6.60
2022-11-29T02:33:49.806Z,5.86
2022-11-29T02:34:21.218Z,5.71
2022-11-29T02:34:53.011Z,6.20
2022-11-29T02:35:24.394Z,5.89
2022-11-29T02:35:55.792Z,6.01
2022-11-29T02:36:27.175Z,6.24
2022-11-29T02:36:58.606Z,6.68
2022-11-29T02:37:30.029Z,5.96
2022-11-29T02:38:01.423Z,6.40
2022-11-29T02:38:32.836Z,6.18
2022-11-29T02:39:04.243Z,6.56
2022-11-29T02:39:35.642Z,6.62
2022-11-29T02:40:07.170Z,6.58
2022-11-29T02:40:38.555Z,6.31
2022-11-29T02:41:10.120Z,6.17
2022-11-29T02:41:41.510Z,5.76
2022-11-29T02:42:12.900Z,6.88
2022-11-29T02:42:44.291Z,6.64
2022-11-29T02:43:15.677Z,6.99
2022-11-29T02:43:47.072Z,6.35
2022-11-29T02:44:18.470Z,5.79
2022-11-29T02:44:49.857Z,6.25
2022-11-29T02:45:21.332Z,6.57
2022-11-29T02:45:52.775Z,6.24
2022-11-29T02:46:24.262Z,5.98
2022-11-29T02:46:55.671Z,6.49
2022-11-29T02:47:27.062Z,6.30
2022-11-29T02:47:58.454Z,6.86
2022-11-29T02:48:29.848Z,6.88
2022-11-29T02:49:01.244Z,7.21
2022-11-29T02:49:32.636Z,6.08
2022-11-29T02:50:04.047Z,5.92
2022-11-29T02:50:35.495Z,6.27
2022-11-29T02:51:06.893Z,6.71
2022-11-29T02:51:38.300Z,6.19
2022-11-29T02:52:09.714Z,6.28
2022-11-29T02:52:41.109Z,6.50
2022-11-29T02:53:12.516Z,6.41
2022-11-29T02:53:43.911Z,6.41
2022-11-29T02:54:15.303Z,6.36
2022-11-29T02:54:47.071Z,6.03
2022-11-29T02:55:18.785Z,6.08
2022-11-29T02:55:50.199Z,6.05
2022-11-29T02:56:21.587Z,5.70
2022-11-29T02:56:52.999Z,5.64
2022-11-29T02:57:24.415Z,5.67
2022-11-29T02:57:55.823Z,6.74
2022-11-29T02:58:27.234Z,6.62
2022-11-29T02:58:58.627Z,6.26
2022-11-29T02:59:30.042Z,6.27
2022-11-29T03:00:01.437Z,6.09
2022-11-29T03:00:32.828Z,6.20
2022-11-29T03:01:04.430Z,6.49
2022-11-29T03:01:35.932Z,6.07
2022-11-29T03:02:07.434Z,6.19
2022-11-29T03:02:38.907Z,6.11
2022-11-29T03:03:10.314Z,5.71
2022-11-29T03:03:41.707Z,5.97
2022-11-29T03:04:13.116Z,5.15
2022-11-29T03:04:44.692Z,5.78
2022-11-29T03:05:16.276Z,6.37
2022-11-29T03:05:47.671Z,6.27
2022-11-29T03:06:19.102Z,5.55
2022-11-29T03:06:50.487Z,6.60
2022-11-29T03:07:21.934Z,5.12
2022-11-29T03:07:53.442Z,6.14
2022-11-29T03:08:25.034Z,6.82
2022-11-29T03:08:56.423Z,6.09
2022-11-29T03:09:27.811Z,5.35
2022-11-29T03:09:59.203Z,5.90
2022-11-29T03:10:30.597Z,5.66
2022-11-29T03:11:01.984Z,6.46
2022-11-29T03:11:33.479Z,6.14
2022-11-29T03:12:04.887Z,5.64
2022-11-29T03:12:36.275Z,6.33
2022-11-29T03:13:07.674Z,5.78
2022-11-29T03:13:39.081Z,6.46
2022-11-29T03:14:10.491Z,5.57
2022-11-29T03:14:42.341Z,6.03
2022-11-29T03:15:14.003Z,6.30
2022-11-29T03:15:45.435Z,6.18
2022-11-29T03:16:16.906Z,6.20
2022-11-29T03:16:48.364Z,5.98
2022-11-29T03:17:19.760Z,5.81
2022-11-29T03:17:51.156Z,6.34
2022-11-29T03:18:22.542Z,5.58
2022-11-29T03:18:53.925Z,6.33
2022-11-29T03:19:25.319Z,6.30
2022-11-29T03:19:56.708Z,5.86
2022-11-29T03:20:28.101Z,5.95
2022-11-29T03:20:59.528Z,6.30
2022-11-29T03:21:30.934Z,5.47
2022-11-29T03:22:02.407Z,5.55
2022-11-29T03:22:33.803Z,5.76
2022-11-29T03:23:05.223Z,5.56
2022-11-29T03:23:36.630Z,6.00
2022-11-29T03:24:08.010Z,6.28
2022-11-29T03:24:39.415Z,6.15
2022-11-29T03:25:10.867Z,6.16
2022-11-29T03:25:42.270Z,6.20
2022-11-29T03:26:13.665Z,5.70
2022-11-29T03:26:45.049Z,5.62
2022-11-29T03:27:16.574Z,5.53
2022-11-29T03:27:48.065Z,5.83
2022-11-29T03:28:19.461Z,5.97
2022-11-29T03:28:50.866Z,6.27
2022-11-29T03:29:22.332Z,5.73
2022-11-29T03:29:53.728Z,5.75
2022-11-29T03:30:25.116Z,5.97
2022-11-29T03:30:56.544Z,6.43
2022-11-29T03:31:28.068Z,5.92
2022-11-29T03:31:59.474Z,5.86
2022-11-29T03:32:30.951Z,6.44
2022-11-29T03:33:02.347Z,6.02
2022-11-29T03:33:33.731Z,6.51
2022-11-29T03:34:05.124Z,5.83
2022-11-29T03:34:36.512Z,5.73
2022-11-29T03:35:07.931Z,5.24
2022-11-29T03:35:39.338Z,5.39
2022-11-29T03:36:10.732Z,5.92
2022-11-29T03:36:42.119Z,5.47
2022-11-29T03:37:13.502Z,6.05
2022-11-29T03:37:45.002Z,5.72
2022-11-29T03:38:16.394Z,5.12
2022-11-29T03:38:47.778Z,5.60
2022-11-29T03:39:19.174Z,5.96
2022-11-29T03:39:50.565Z,6.85
2022-11-29T03:40:21.961Z,5.32
2022-11-29T03:40:53.351Z,5.67
2022-11-29T03:41:24.739Z,5.74
2022-11-29T03:41:56.148Z,5.51
2022-11-29T03:42:27.541Z,6.15
2022-11-29T03:42:58.971Z,6.06
2022-11-29T03:43:30.361Z,6.30
2022-11-29T03:44:01.781Z,5.86
2022-11-29T03:44:33.178Z,5.99
2022-11-29T03:45:04.571Z,5.65
2022-11-29T03:45:35.969Z,5.58
2022-11-29T03:46:07.450Z,5.57
2022-11-29T03:46:38.898Z,4.87
2022-11-29T03:47:10.330Z,5.34
2022-11-29T03:47:41.787Z,5.49
2022-11-29T03:48:13.218Z,5.48
2022-11-29T03:48:44.603Z,6.54
2022-11-29T03:49:16.003Z,6.05
2022-11-29T03:49:47.409Z,5.56
2022-11-29T03:50:18.794Z,5.78
2022-11-29T03:50:50.180Z,5.57
2022-11-29T03:51:21.647Z,4.66
2022-11-29T03:51:53.038Z,5.50
2022-11-29T03:52:24.431Z,5.80
2022-11-29T03:52:55.841Z,5.68
2022-11-29T03:53:27.243Z,5.29
2022-11-29T03:53:58.639Z,5.10
2022-11-29T03:54:30.055Z,5.71
2022-11-29T03:55:01.448Z,5.95
2022-11-29T03:55:32.863Z,5.44
2022-11-29T03:56:04.283Z,5.20
2022-11-29T03:56:35.673Z,5.32
2022-11-29T03:57:07.075Z,5.37
2022-11-29T03:57:38.470Z,5.32
2022-11-29T03:58:09.860Z,5.35
2022-11-29T03:58:41.336Z,5.64
2022-11-29T03:59:12.725Z,5.12
2022-11-29T03:59:44.355Z,5.24
2022-11-29T04:00:15.785Z,4.95
2022-11-29T04:00:47.170Z,5.54
2022-11-29T04:01:18.709Z,5.55
2022-11-29T04:01:50.173Z,5.65
2022-11-29T04:02:21.648Z,6.14
2022-11-29T04:02:53.138Z,5.85
2022-11-29T04:03:24.536Z,5.40
2022-11-29T04:03:55.944Z,5.55
2022-11-29T04:04:27.341Z,4.92
2022-11-29T04:04:58.732Z,5.22
2022-11-29T04:05:30.131Z,5.07
2022-11-29T04:06:01.534Z,5.59
2022-11-29T04:06:32.964Z,5.45
2022-11-29T04:07:04.357Z,4.83
2022-11-29T04:07:35.784Z,5.32
2022-11-29T04:08:07.248Z,4.94
2022-11-29T04:08:38.642Z,5.62
2022-11-29T04:09:10.035Z,5.80
2022-11-29T04:09:41.435Z,5.80
2022-11-29T04:10:12.824Z,5.12
2022-11-29T04:10:44.423Z,5.39
2022-11-29T04:11:15.958Z,5.34
2022-11-29T04:11:47.464Z,5.39
2022-11-29T04:12:18.869Z,5.46
2022-11-29T04:12:50.275Z,5.18
2022-11-29T04:13:21.670Z,5.29
2022-11-29T04:13:53.174Z,5.20
2022-11-29T04:14:24.564Z,5.35
2022-11-29T04:14:55.951Z,5.07
2022-11-29T04:15:27.348Z,4.96
2022-11-29T04:15:58.783Z,5.63
2022-11-29T04:16:30.219Z,5.08
2022-11-29T04:17:01.742Z,5.62
2022-11-29T04:17:33.136Z,5.05
2022-11-29T04:18:04.548Z,4.89
2022-11-29T04:18:35.943Z,4.81
2022-11-29T04:19:07.394Z,5.51
2022-11-29T04:19:38.784Z,5.33
2022-11-29T04:20:10.170Z,5.19
2022-11-29T04:20:46.706Z,4.87
2022-11-29T04:21:19.500Z,5.78
2022-11-29T04:21:51.026Z,4.99
2022-11-29T04:22:22.536Z,5.58
2022-11-29T04:22:53.954Z,5.39
2022-11-29T04:23:25.350Z,5.99
2022-11-29T04:23:56.734Z,4.90
2022-11-29T04:24:28.124Z,4.82
2022-11-29T04:24:59.517Z,5.29
2022-11-29T04:25:30.906Z,4.94
2022-11-29T04:26:02.313Z,4.87
2022-11-29T04:26:35.235Z,4.34
2022-11-29T04:27:06.806Z,5.32
2022-11-29T04:27:38.352Z,5.25
2022-11-29T04:28:09.740Z,4.61
2022-11-29T04:28:41.171Z,5.50
2022-11-29T04:29:12.564Z,5.07
2022-11-29T04:29:43.959Z,5.30
2022-11-29T04:30:15.370Z,4.63
2022-11-29T04:30:46.802Z,5.39
2022-11-29T04:31:18.383Z,5.30
2022-11-29T04:31:49.834Z,5.31
2022-11-29T04:32:21.236Z,5.27
2022-11-29T04:32:52.663Z,4.80
2022-11-29T04:33:24.075Z,4.76
2022-11-29T04:33:55.468Z,5.35
2022-11-29T04:34:26.854Z,4.88
2022-11-29T04:34:58.269Z,5.02
2022-11-29T04:35:29.663Z,4.85
2022-11-29T04:36:01.070Z,4.71
2022-11-29T04:36:32.475Z,5.29
2022-11-29T04:37:03.859Z,5.20
2022-11-29T04:37:35.252Z,5.62
2022-11-29T04:38:06.765Z,5.83
2022-11-29T04:38:38.185Z,5.39
2022-11-29T04:39:09.586Z,4.91
2022-11-29T04:39:40.982Z,5.42
2022-11-29T04:40:12.372Z,5.39
2022-11-29T04:40:43.774Z,4.57
2022-11-29T04:41:15.193Z,4.47
2022-11-29T04:41:46.585Z,4.49
2022-11-29T04:42:17.979Z,5.07
2022-11-29T04:42:49.388Z,5.06
2022-11-29T04:43:20.845Z,4.48
2022-11-29T04:43:52.236Z,5.64
2022-11-29T04:44:23.647Z,5.23
2022-11-29T04:44:55.058Z,4.52
2022-11-29T04:45:26.450Z,5.40
2022-11-29T04:45:57.874Z,4.75
2022-11-29T04:46:29.369Z,5.82
2022-11-29T04:47:00.762Z,5.29
2022-11-29T04:47:32.151Z,5.34
2022-11-29T04:48:03.535Z,4.47
2022-11-29T04:48:34.995Z,4.85
2022-11-29T04:49:06.387Z,4.76
2022-11-29T04:49:37.777Z,4.53
2022-11-29T04:50:09.183Z,5.06
2022-11-29T04:50:40.599Z,4.82
2022-11-29T04:51:11.988Z,5.33
2022-11-29T04:51:43.380Z,4.84
2022-11-29T04:52:14.783Z,4.36
2022-11-29T04:52:46.172Z,4.94
2022-11-29T04:53:17.601Z,5.06
2022-11-29T04:53:48.999Z,4.86
2022-11-29T04:54:20.403Z,4.76
2022-11-29T04:54:51.801Z,4.94
2022-11-29T04:55:30.502Z,4.79
2022-11-29T04:56:02.215Z,4.68
2022-11-29T04:56:33.635Z,4.96
2022-11-29T04:57:05.200Z,5.72
2022-11-29T04:57:36.597Z,4.39
2022-11-29T04:58:07.995Z,4.68
2022-11-29T04:58:39.378Z,4.31
2022-11-29T04:59:10.826Z,4.65
2022-11-29T04:59:42.221Z,4.45
2022-11-29T05:00:13.616Z,5.30
2022-11-29T05:00:45.014Z,4.88
2022-11-29T05:01:16.458Z,4.90
2022-11-29T05:01:48.070Z,4.60
2022-11-29T05:02:19.546Z,5.38
2022-11-29T05:02:51.016Z,5.13
2022-11-29T05:03:22.419Z,4.94
2022-11-29T05:03:57.033Z,4.67
2022-11-29T05:04:28.842Z,4.54
2022-11-29T05:05:00.251Z,4.91
2022-11-29T05:05:31.639Z,4.19
2022-11-29T05:06:03.026Z,5.07
2022-11-29T05:06:34.414Z,4.77
2022-11-29T05:07:05.818Z,4.96
2022-11-29T05:07:37.268Z,4.75
2022-11-29T05:08:08.681Z,4.74
2022-11-29T05:08:40.107Z,5.16
2022-11-29T05:09:11.507Z,5.04
2022-11-29T05:09:43.028Z,4.92
2022-11-29T05:10:14.418Z,4.97
2022-11-29T05:10:45.812Z,5.09
2022-11-29T05:11:19.781Z,5.05
2022-11-29T05:11:54.891Z,4.67
2022-11-29T05:12:26.361Z,5.12
2022-11-29T05:12:57.770Z,4.32
2022-11-29T05:13:29.163Z,5.01
2022-11-29T05:14:00.559Z,4.34
2022-11-29T05:14:31.971Z,4.02
2022-11-29T05:15:03.433Z,4.59
2022-11-29T05:15:34.826Z,4.34
2022-11-29T05:16:06.232Z,4.40
2022-11-29T05:16:37.643Z,4.21
2022-11-29T05:17:09.030Z,4.72
2022-11-29T05:17:40.423Z,4.24
2022-11-29T05:18:11.809Z,5.17
2022-11-29T05:18:43.204Z,4.38
2022-11-29T05:19:14.600Z,4.26
2022-11-29T05:19:46.014Z,4.01
2022-11-29T05:20:17.471Z,4.70
2022-11-29T05:20:49.033Z,4.32
2022-11-29T05:21:20.479Z,4.28
2022-11-29T05:21:51.887Z,5.06
2022-11-29T05:22:23.281Z,4.78
2022-11-29T05:22:54.703Z,4.13
2022-11-29T05:23:26.102Z,4.43
2022-11-29T05:23:57.510Z,5.21
2022-11-29T05:24:28.902Z,4.82
2022-11-29T05:25:00.290Z,4.66
2022-11-29T05:25:31.738Z,4.39
2022-11-29T05:26:03.159Z,4.76
2022-11-29T05:26:34.543Z,4.59
2022-11-29T05:27:05.933Z,4.71
2022-11-29T05:27:37.330Z,4.23
2022-11-29T05:28:10.408Z,4.06
2022-11-29T05:28:41.951Z,4.45
2022-11-29T05:29:13.366Z,4.24
2022-11-29T05:29:44.757Z,4.03
2022-11-29T05:30:16.169Z,4.56
2022-11-29T05:30:47.905Z,4.49
2022-11-29T05:31:19.369Z,4.89
2022-11-29T05:31:50.827Z,4.67
2022-11-29T05:32:22.220Z,4.67
2022-11-29T05:32:53.625Z,4.76
2022-11-29T05:33:25.025Z,4.65
2022-11-29T05:33:56.431Z,3.98
2022-11-29T05:34:33.268Z,4.56
2022-11-29T05:35:06.216Z,5.10
2022-11-29T05:35:37.606Z,4.18
2022-11-29T05:36:09.019Z,4.07
2022-11-29T05:36:40.421Z,4.68
2022-11-29T05:37:11.972Z,4.91
2022-11-29T05:37:43.359Z,5.02
2022-11-29T05:38:14.748Z,4.31
2022-11-29T05:38:46.140Z,4.31
2022-11-29T05:39:17.552Z,4.25
2022-11-29T05:39:48.965Z,4.12
2022-11-29T05:40:20.356Z,4.18
2022-11-29T05:40:51.766Z,3.68
2022-11-29T05:41:23.236Z,4.83
2022-11-29T05:41:54.628Z,4.54
2022-11-29T05:42:26.022Z,4.74
2022-11-29T05:42:57.411Z,3.93
2022-11-29T05:43:28.808Z,4.09
2022-11-29T05:44:00.203Z,4.47
2022-11-29T05:44:31.615Z,4.46
2022-11-29T05:45:03.010Z,4.93
2022-11-29T05:45:34.404Z,5.10
2022-11-29T05:46:05.893Z,5.01
2022-11-29T05:46:37.365Z,4.38
2022-11-29T05:47:08.771Z,4.08
2022-11-29T05:47:40.163Z,4.49
2022-11-29T05:48:11.558Z,4.37
2022-11-29T05:48:42.949Z,4.72
2022-11-29T05:49:14.364Z,4.36
2022-11-29T05:49:45.756Z,4.16
2022-11-29T05:50:17.170Z,3.98
2022-11-29T05:50:48.574Z,4.09
2022-11-29T05:51:20.023Z,4.66
2022-11-29T05:51:51.410Z,4.45
2022-11-29T05:52:22.801Z,4.13
2022-11-29T05:52:54.193Z,4.31
2022-11-29T05:53:25.615Z,4.61
2022-11-29T05:53:57.011Z,5.04
2022-11-29T05:54:28.425Z,4.20
2022-11-29T05:54:59.829Z,4.44
2022-11-29T05:55:31.227Z,3.94
2022-11-29T05:56:02.767Z,4.08
2022-11-29T05:56:34.283Z,4.53
2022-11-29T05:57:05.672Z,4.06
2022-11-29T05:57:37.063Z,4.40
2022-11-29T05:58:08.507Z,4.75
2022-11-29T05:58:39.914Z,4.74
2022-11-29T05:59:11.328Z,4.51
2022-11-29T05:59:42.730Z,3.94
2022-11-29T06:00:14.139Z,4.29
2022-11-29T06:00:45.549Z,4.44
2022-11-29T06:01:16.959Z,4.32
2022-11-29T06:01:48.585Z,4.29
2022-11-29T06:02:20.142Z,3.97
2022-11-29T06:02:51.593Z,4.08
2022-11-29T06:03:22.997Z,4.34
2022-11-29T06:03:54.387Z,4.18
2022-11-29T06:04:25.782Z,4.33
2022-11-29T06:04:57.183Z,4.58
2022-11-29T06:05:28.576Z,3.82
2022-11-29T06:05:59.972Z,4.24
2022-11-29T06:06:31.363Z,4.15
2022-11-29T06:07:02.815Z,4.26
2022-11-29T06:07:34.243Z,4.76
2022-11-29T06:08:05.656Z,4.70
2022-11-29T06:08:37.071Z,3.64
2022-11-29T06:09:08.468Z,4.45
2022-11-29T06:09:39.859Z,4.74
2022-11-29T06:10:11.248Z,4.45
2022-11-29T06:10:42.638Z,4.30
2022-11-29T06:11:14.053Z,4.45
2022-11-29T06:11:45.464Z,3.96
2022-11-29T06:12:20.855Z,3.93
2022-11-29T06:12:52.714Z,4.17
2022-11-29T06:13:24.115Z,3.50
2022-11-29T06:13:55.527Z,3.88
2022-11-29T06:14:26.923Z,3.70
2022-11-29T06:14:58.322Z,4.22
2022-11-29T06:15:29.707Z,4.42
2022-11-29T06:16:01.111Z,4.11
2022-11-29T06:16:32.563Z,4.13
2022-11-29T06:17:04.013Z,4.32
2022-11-29T06:17:39.057Z,4.24
2022-11-29T06:18:11.021Z,3.92
2022-11-29T06:18:42.415Z,4.37
2022-11-29T06:19:13.824Z,4.47
2022-11-29T06:19:45.227Z,4.22
2022-11-29T06:20:16.623Z,4.09
2022-11-29T06:20:48.397Z,4.56
2022-11-29T06:21:19.935Z,4.45
2022-11-29T06:21:51.535Z,4.12
2022-11-29T06:22:23.147Z,4.18
2022-11-29T06:22:54.771Z,4.52
2022-11-29T06:23:26.423Z,4.19
2022-11-29T06:23:57.875Z,4.39
2022-11-29T06:24:29.295Z,4.22
2022-11-29T06:25:00.689Z,3.72
2022-11-29T06:25:32.090Z,3.95
2022-11-29T06:26:04.332Z,4.09
2022-11-29T06:26:35.911Z,4.23
2022-11-29T06:27:07.308Z,4.32
2022-11-29T06:27:38.714Z,3.95
2022-11-29T06:28:10.232Z,4.22
2022-11-29T06:28:41.627Z,4.95
2022-11-29T06:29:13.030Z,4.35
2022-11-29T06:29:44.418Z,3.69
2022-11-29T06:30:15.829Z,3.52
2022-11-29T06:30:47.228Z,3.89
2022-11-29T06:31:18.669Z,4.82
2022-11-29T06:31:50.103Z,4.13
2022-11-29T06:32:21.527Z,3.87
2022-11-29T06:32:52.921Z,4.37
2022-11-29T06:33:24.367Z,3.96
2022-11-29T06:33:55.756Z,3.47
2022-11-29T06:34:30.737Z,4.13
2022-11-29T06:35:02.459Z,4.20
2022-11-29T06:35:33.847Z,4.66
2022-11-29T06:36:05.246Z,4.30
2022-11-29T06:36:36.639Z,4.22
2022-11-29T06:37:08.029Z,4.32
2022-11-29T06:37:39.424Z,4.09
2022-11-29T06:38:10.830Z,4.26
2022-11-29T06:38:42.328Z,4.22
2022-11-29T06:39:13.725Z,4.56
2022-11-29T06:39:45.143Z,4.55
2022-11-29T06:40:16.550Z,3.76
2022-11-29T06:40:47.940Z,3.78
2022-11-29T06:41:19.378Z,4.26
2022-11-29T06:41:50.775Z,4.23
2022-11-29T06:42:22.190Z,4.51
2022-11-29T06:42:53.599Z,4.49
2022-11-29T06:43:24.986Z,4.57
2022-11-29T06:43:56.516Z,3.93
2022-11-29T06:44:27.943Z,3.78
2022-11-29T06:44:59.355Z,3.59
2022-11-29T06:45:30.745Z,4.19
2022-11-29T06:46:02.311Z,3.79
2022-11-29T06:46:33.731Z,4.16
2022-11-29T06:47:05.192Z,4.16
2022-11-29T06:47:36.605Z,4.34
2022-11-29T06:48:08.001Z,4.13
2022-11-29T06:48:39.471Z,3.84
2022-11-29T06:49:10.975Z,4.08
2022-11-29T06:49:42.399Z,3.85
2022-11-29T06:50:13.795Z,3.64
2022-11-29T06:50:45.188Z,4.16
2022-11-29T06:51:16.587Z,4.38
2022-11-29T06:51:47.975Z,4.23
2022-11-29T06:52:19.375Z,3.48
2022-11-29T06:52:50.787Z,3.71
2022-11-29T06:53:22.177Z,3.80
2022-11-29T06:53:53.565Z,3.64
2022-11-29T06:54:24.979Z,3.97
2022-11-29T06:54:56.389Z,4.14
2022-11-29T06:55:27.787Z,3.69
2022-11-29T06:55:59.173Z,4.14
2022-11-29T06:56:30.559Z,4.31
2022-11-29T06:57:01.952Z,4.51
2022-11-29T06:57:33.416Z,4.27
2022-11-29T06:58:04.879Z,4.59
2022-11-29T06:58:36.587Z,4.02
2022-11-29T06:59:08.054Z,3.75